Time;durP1;ratioP1;P1;durP2;ratioP2;P2;SDS_P1;SDS_P2;PMS_P1;PMS_P2;Temp;Humidity;BMP_temperature;BMP_pressure;BME280_temperature;BME280_humidity;BME280_pressure;Samples;Min_cycle;Max_cycle;Signal;HPM_P1;HPM_P2
2022/11/03 00:01:50;;;;;;;17.48;11.90;;;;;;;9.28;83.36;100438.30;1716311;82;21571;-70
2022/11/03 00:04:19;;;;;;;19.98;14.55;;;;;;;9.29;83.55;100443.97;1720984;82;21114;-70
2022/11/03 00:06:50;;;;;;;25.53;15.33;;;;;;;9.28;83.59;100440.45;1717056;82;21532;-71
2022/11/03 00:09:19;;;;;;;21.93;14.87;;;;;;;9.30;83.49;100432.30;1707849;82;21079;-70
2022/11/03 00:11:52;;;;;;;23.27;14.33;;;;;;;9.30;83.66;100430.46;1712278;83;21080;-70
2022/11/03 00:14:19;;;;;;;21.57;15.27;;;;;;;9.30;84.00;100423.81;1704742;83;21065;-71
2022/11/03 00:16:46;;;;;;;19.57;15.13;;;;;;;9.28;84.02;100422.34;1722100;83;21106;-72
2022/11/03 00:19:15;;;;;;;19.53;15.17;;;;;;;9.26;84.11;100423.84;1721190;83;21601;-71
2022/11/03 00:21:44;;;;;;;19.50;15.93;;;;;;;9.24;84.53;100426.38;1716077;83;21059;-71
2022/11/03 00:24:11;;;;;;;16.13;13.27;;;;;;;9.21;84.93;100422.72;1715860;83;21082;-71
2022/11/03 00:26:39;;;;;;;19.73;15.70;;;;;;;9.19;85.25;100421.56;1720214;83;21019;-70
2022/11/03 00:29:12;;;;;;;21.97;15.67;;;;;;;9.19;85.42;100418.91;1711235;81;21042;-71
2022/11/03 00:31:42;;;;;;;21.83;15.47;;;;;;;9.16;85.37;100416.63;1702378;83;21121;-69
2022/11/03 00:34:09;;;;;;;20.13;15.40;;;;;;;9.11;85.60;100412.33;1708611;83;21712;-70
2022/11/03 00:36:42;;;;;;;23.30;15.47;;;;;;;9.07;85.71;100422.48;1669050;83;21128;-71
2022/11/03 00:39:10;;;;;;;24.93;15.80;;;;;;;9.05;85.73;100425.83;1692344;83;21033;-71
2022/11/03 00:41:38;;;;;;;24.90;15.90;;;;;;;9.04;85.96;100417.54;1692615;83;21002;-71
2022/11/03 00:44:05;;;;;;;20.13;14.63;;;;;;;9.07;86.10;100421.16;1698675;83;21098;-72
2022/11/03 00:46:35;;;;;;;23.97;15.83;;;;;;;9.08;86.59;100424.16;1705211;83;21068;-71
2022/11/03 00:49:03;;;;;;;21.62;16.60;;;;;;;9.03;86.55;100415.88;1689455;84;21065;-71
2022/11/03 00:51:29;;;;;;;22.43;15.67;;;;;;;8.96;87.00;100423.70;1706977;84;21022;-71
2022/11/03 00:54:03;;;;;;;22.10;16.73;;;;;;;8.95;87.23;100425.23;1705271;84;21085;-73
2022/11/03 00:56:33;;;;;;;22.17;15.93;;;;;;;8.94;87.42;100423.57;1699801;84;21518;-69
2022/11/03 00:59:02;;;;;;;19.37;15.73;;;;;;;8.95;87.72;100425.23;1704326;84;21058;-70
2022/11/03 01:01:36;;;;;;;23.37;17.37;;;;;;;8.96;88.21;100420.23;1710466;84;21033;-71
2022/11/03 01:06:53;;;;;;;16.93;14.73;;;;;;;8.88;88.77;100411.80;1699634;84;21234;-69
2022/11/03 01:09:30;;;;;;;27.83;18.20;;;;;;;8.87;89.24;100417.30;1710515;84;21578;-71
2022/11/03 01:12:15;;;;;;;27.00;18.15;;;;;;;8.86;89.37;100411.66;1701221;84;21006;-70
2022/11/03 01:14:49;;;;;;;23.75;15.63;;;;;;;8.86;89.60;100411.16;1708654;84;21049;-71
2022/11/03 01:17:21;;;;;;;23.00;15.80;;;;;;;8.90;89.82;100416.95;1700104;84;21617;-73
2022/11/03 01:19:48;;;;;;;21.87;16.60;;;;;;;8.91;90.02;100411.47;1709855;84;21064;-72
2022/11/03 01:22:16;;;;;;;25.10;17.53;;;;;;;8.94;90.04;100414.27;1702937;84;21044;-72
2022/11/03 01:24:44;;;;;;;27.20;18.40;;;;;;;8.96;90.32;100408.27;1698648;84;21581;-70
2022/11/03 01:27:16;;;;;;;24.03;17.37;;;;;;;8.96;90.51;100410.92;1694402;84;21534;-70
2022/11/03 01:29:43;;;;;;;26.27;17.97;;;;;;;8.98;90.87;100419.55;1706971;84;21562;-71
2022/11/03 01:32:11;;;;;;;26.27;16.40;;;;;;;9.00;90.96;100421.53;1686484;84;21091;-70
2022/11/03 01:34:40;;;;;;;24.30;16.60;;;;;;;9.02;91.02;100421.36;1701946;84;21058;-71
2022/11/03 01:37:06;;;;;;;27.70;17.83;;;;;;;9.05;91.09;100417.84;1702020;84;21210;-71
2022/11/03 01:39:33;;;;;;;27.37;19.27;;;;;;;9.09;91.12;100422.31;1643279;87;21085;-72
2022/11/03 01:41:59;;;;;;;29.98;19.40;;;;;;;9.11;90.95;100407.83;1633647;85;21064;-70
2022/11/03 01:44:35;;;;;;;30.82;18.65;;;;;;;9.14;91.01;100411.98;1689222;84;20981;-70
2022/11/03 01:47:19;;;;;;;23.27;17.57;;;;;;;9.15;91.02;100413.14;1663067;85;21657;-71
2022/11/03 01:50:06;;;;;;;30.23;18.83;;;;;;;9.16;91.06;100416.11;1688957;83;21148;-70
2022/11/03 01:52:47;;;;;;;26.80;18.77;;;;;;;9.18;90.97;100414.61;1704587;83;21514;-71
2022/11/03 01:55:19;;;;;;;29.10;18.07;;;;;;;9.22;91.06;100409.25;1717878;83;21114;-71
2022/11/03 01:57:53;;;;;;;28.93;20.23;;;;;;;9.21;91.08;100411.61;1707226;83;21053;-70
2022/11/03 02:00:20;;;;;;;33.83;22.07;;;;;;;9.21;91.05;100409.42;1703984;83;21079;-69
2022/11/03 02:02:49;;;;;;;35.37;23.23;;;;;;;9.20;91.00;100415.26;1691767;83;21065;-70
2022/11/03 02:05:19;;;;;;;35.60;22.57;;;;;;;9.14;91.04;100407.48;1687158;84;21504;-69
2022/11/03 02:08:09;;;;;;;32.87;24.13;;;;;;;9.09;91.27;100404.52;1717177;83;21147;-70
2022/11/03 02:10:37;;;;;;;32.33;21.87;;;;;;;9.07;91.48;100401.72;1679372;83;21690;-70
2022/11/03 02:13:20;;;;;;;32.07;22.47;;;;;;;9.05;91.78;100408.54;1700169;83;21591;-70
2022/11/03 02:15:53;;;;;;;31.07;22.33;;;;;;;9.04;92.01;100409.56;1713254;82;21040;-70
2022/11/03 02:18:27;;;;;;;33.37;21.37;;;;;;;9.05;92.13;100407.72;1706713;82;21369;-71
2022/11/03 02:21:19;;;;;;;31.90;22.80;;;;;;;9.05;92.09;100406.39;1702849;83;21063;-69
2022/11/03 02:23:59;;;;;;;31.70;21.67;;;;;;;9.06;92.24;100410.21;1701725;83;21550;-70
2022/11/03 02:26:26;;;;;;;29.87;22.10;;;;;;;9.10;92.26;100404.86;1705856;83;21005;-70
2022/11/03 02:28:53;;;;;;;33.57;21.77;;;;;;;9.15;92.32;100405.64;1694070;83;21165;-71
2022/11/03 02:31:31;;;;;;;28.13;21.57;;;;;;;9.20;92.11;100401.14;1699551;83;21008;-70
2022/11/03 02:34:08;;;;;;;31.03;21.43;;;;;;;9.20;91.94;100405.12;1693074;84;21144;-70
2022/11/03 02:36:47;;;;;;;;;;;;;;;9.17;92.06;100402.30;1711571;82;21006;-70
2022/11/03 02:39:28;;;;;;;29.23;19.87;;;;;;;9.16;92.16;100403.33;1678376;83;20918;-71
2022/11/03 02:41:58;;;;;;;26.83;18.67;;;;;;;9.12;92.47;100406.84;1690807;83;21001;-71
2022/11/03 02:44:27;;;;;;;32.40;21.20;;;;;;;9.13;92.60;100406.33;1693148;83;21167;-71
2022/11/03 02:46:59;;;;;;;30.77;20.63;;;;;;;9.11;92.66;100399.84;1687848;83;21037;-70
2022/11/03 02:49:26;;;;;;;31.23;19.63;;;;;;;9.11;92.78;100402.51;1691790;83;21028;-70
2022/11/03 02:52:03;;;;;;;29.03;20.60;;;;;;;9.15;92.85;100405.64;1686986;83;21069;-71
2022/11/03 02:54:37;;;;;;;30.47;20.73;;;;;;;9.18;92.84;100402.64;1689648;83;21628;-69
2022/11/03 02:57:14;;;;;;;27.47;20.00;;;;;;;9.21;92.90;100400.12;1695918;83;21068;-71
2022/11/03 02:59:50;;;;;;;29.30;19.80;;;;;;;9.28;92.79;100401.06;1698720;84;21068;-71
2022/11/03 03:02:21;;;;;;;31.07;21.33;;;;;;;9.32;92.59;100402.36;1694495;83;21112;-69
2022/11/03 03:04:55;;;;;;;25.87;19.87;;;;;;;9.35;92.45;100395.36;1697731;83;21075;-71
2022/11/03 03:07:29;;;;;;;27.07;20.17;;;;;;;9.36;92.43;100403.65;1698553;83;21064;-72
2022/11/03 03:10:13;;;;;;;31.20;20.07;;;;;;;9.40;92.47;100402.80;1695397;83;21103;-72
2022/11/03 03:12:45;;;;;;;28.80;20.57;;;;;;;9.41;92.13;100397.81;1692997;83;21155;-70
2022/11/03 03:15:12;;;;;;;28.20;20.93;;;;;;;9.41;92.14;100394.64;1688605;83;21064;-72
2022/11/03 03:17:49;;;;;;;32.33;20.37;;;;;;;9.43;92.27;100391.80;1697183;83;21604;-71
2022/11/03 03:20:39;;;;;;;26.83;19.13;;;;;;;9.45;92.20;100389.28;1699503;83;21088;-71
2022/11/03 03:23:14;;;;;;;30.13;20.27;;;;;;;9.50;92.17;100392.75;1693029;83;21049;-72
2022/11/03 03:25:46;;;;;;;29.83;21.10;;;;;;;9.54;92.07;100387.38;1691049;83;21088;-70
2022/11/03 03:28:26;;;;;;;32.20;21.80;;;;;;;9.58;91.81;100386.01;1658836;83;21026;-70
2022/11/03 03:30:55;;;;;;;29.27;21.17;;;;;;;9.60;91.67;100379.19;1686722;83;21068;-70
2022/11/03 03:33:25;;;;;;;32.73;22.10;;;;;;;9.60;91.69;100379.19;1671836;84;21661;-73
2022/11/03 03:35:55;;;;;;;33.80;22.67;;;;;;;9.61;91.71;100382.18;1698762;83;21192;-73
2022/11/03 03:38:27;;;;;;;30.20;21.70;;;;;;;9.57;92.28;100377.72;1698215;83;21293;-73
2022/11/03 03:40:56;;;;;;;31.40;21.83;;;;;;;9.54;92.69;100376.73;1697403;83;21107;-73
2022/11/03 03:43:26;;;;;;;29.77;21.83;;;;;;;9.50;93.26;100372.28;1719132;82;21080;-72
2022/11/03 07:19:19;;;;;;;18.35;15.50;;;;;;;11.16;100.00;100347.91;1788345;78;22809;-63
2022/11/03 07:22:01;;;;;;;19.27;13.75;;;;;;;11.09;100.00;100355.84;1740161;80;21073;-65
2022/11/03 07:24:35;;;;;;;18.80;14.13;;;;;;;10.99;100.00;100352.69;1732599;81;21001;-63
2022/11/03 07:27:26;;;;;;;16.00;13.47;;;;;;;10.89;100.00;100353.00;1732876;81;21056;-63
2022/11/03 07:29:59;;;;;;;17.07;13.20;;;;;;;10.85;100.00;100361.03;1727149;80;21016;-66
2022/11/03 10:17:51;;;;;;;3.70;1.50;;;;;;;10.90;100.00;100304.79;1746617;79;22762;-65
2022/11/03 10:20:21;;;;;;;2.67;2.47;;;;;;;10.88;100.00;100307.34;1697093;83;21335;-66
2022/11/03 10:22:53;;;;;;;3.20;2.50;;;;;;;10.84;100.00;100303.41;1696641;83;21312;-66
2022/11/03 10:25:42;;;;;;;3.20;3.00;;;;;;;10.85;100.00;100307.22;1706231;83;21036;-66
2022/11/03 10:28:23;;;;;;;2.00;1.90;;;;;;;10.80;100.00;100306.14;1701035;80;21040;-66
2022/11/03 10:30:55;;;;;;;1.67;1.57;;;;;;;10.70;100.00;100305.13;1700913;83;21087;-67
2022/11/03 10:33:32;;;;;;;1.87;1.77;;;;;;;10.64;100.00;100306.72;1664398;84;21046;-65
2022/11/03 10:36:00;;;;;;;;;;;;;;;10.65;100.00;100308.34;1649837;85;21097;-64
2022/11/03 10:38:33;;;;;;;2.50;2.30;;;;;;;10.70;100.00;100306.47;1635631;84;20171;-66
2022/11/03 10:41:20;;;;;;;1.87;1.77;;;;;;;10.62;100.00;100310.05;1632067;85;21588;-68
2022/11/03 10:44:18;;;;;;;1.60;1.50;;;;;;;10.59;100.00;100306.45;1643828;85;21046;-66
2022/11/03 10:47:00;;;;;;;2.00;1.90;;;;;;;10.59;100.00;100304.30;1579887;90;21086;-66
2022/11/03 10:49:34;;;;;;;1.33;1.33;;;;;;;10.51;100.00;100306.58;1576867;89;21016;-66
2022/11/03 10:52:23;;;;;;;0.97;0.97;;;;;;;10.46;100.00;100315.64;1623637;86;21559;-66
2022/11/03 10:54:52;;;;;;;1.90;1.50;;;;;;;10.49;100.00;100308.09;1654938;86;21041;-67
2022/11/03 10:57:21;;;;;;;4.27;1.30;;;;;;;10.49;100.00;100309.91;1650999;85;21040;-66
2022/11/03 10:59:49;;;;;;;1.10;1.10;;;;;;;10.45;100.00;100313.97;1662734;85;21656;-65
2022/11/03 11:02:23;;;;;;;1.43;1.17;;;;;;;10.38;100.00;100313.91;1649726;85;21101;-67
2022/11/03 11:04:58;;;;;;;0.93;0.93;;;;;;;10.44;100.00;100314.48;1644964;86;21196;-67
2022/11/03 11:07:32;;;;;;;1.30;1.30;;;;;;;10.40;100.00;100313.73;1632367;86;21005;-66
2022/11/03 11:10:13;;;;;;;3.70;1.60;;;;;;;10.32;100.00;100313.31;1636166;86;21087;-66
2022/11/03 11:12:43;;;;;;;1.40;1.40;;;;;;;10.25;100.00;100311.06;1655865;83;21748;-67
2022/11/03 11:15:38;;;;;;;1.93;1.83;;;;;;;10.26;100.00;100309.52;1616971;87;21031;-66
2022/11/03 11:18:06;;;;;;;1.43;1.40;;;;;;;10.25;100.00;100310.55;1593339;87;21441;-66
2022/11/03 11:20:40;;;;;;;1.73;1.63;;;;;;;9.82;100.00;100249.70;1607609;87;21544;-66
2022/11/03 11:23:29;;;;;;;1.70;1.70;;;;;;;10.18;100.00;100304.31;1587834;89;21150;-68
2022/11/03 16:41:13;;;;;;;3.90;3.60;;;;;;;9.79;100.00;100452.37;1759470;79;22746;-68
